Time;durP1;ratioP1;P1;durP2;ratioP2;P2;SDS_P1;SDS_P2;PMS_P1;PMS_P2;Temp;Humidity;BMP_temperature;BMP_pressure;BME280_temperature;BME280_humidity;BME280_pressure;Samples;Min_cycle;Max_cycle;Signal;HPM_P1;HPM_P2
2021/12/13 00:01:01;;;;;;;0.50;0.50;;;4.70;99.90;;;;;;5260730;28;20028;-77
2021/12/13 00:03:51;;;;;;;0.50;0.50;;;4.80;99.90;;;;;;5260620;28;20101;-77
2021/12/13 00:06:38;;;;;;;0.60;0.60;;;4.70;99.90;;;;;;5250047;28;20070;-75
2021/12/13 00:09:20;;;;;;;0.65;0.47;;;4.80;99.90;;;;;;5231735;28;20099;-76
2021/12/13 00:12:02;;;;;;;0.52;0.52;;;4.80;99.90;;;;;;5251433;28;20038;-76
2021/12/13 00:14:46;;;;;;;0.40;0.40;;;4.80;99.90;;;;;;5248101;28;20463;-76
2021/12/13 00:17:39;;;;;;;0.55;0.55;;;4.80;99.90;;;;;;5267403;28;20039;-75
2021/12/13 00:20:44;;;;;;;0.68;0.68;;;4.80;99.90;;;;;;5251051;28;20103;-75
2021/12/13 00:23:23;;;;;;;0.50;0.50;;;4.80;99.90;;;;;;5239570;28;20043;-77
2021/12/13 00:26:07;;;;;;;0.40;0.40;;;4.80;99.90;;;;;;5250753;28;20040;-76
2021/12/13 00:28:47;;;;;;;0.68;0.68;;;4.90;99.90;;;;;;5244837;28;20032;-77
2021/12/13 00:31:45;;;;;;;0.52;0.52;;;4.90;99.90;;;;;;5257092;28;20040;-77
2021/12/13 00:34:35;;;;;;;0.50;0.50;;;4.90;99.90;;;;;;5255838;28;20450;-77
2021/12/13 00:37:19;;;;;;;0.50;0.50;;;4.90;99.90;;;;;;5259699;28;20538;-77
2021/12/13 00:40:16;;;;;;;0.60;0.60;;;4.90;99.90;;;;;;5246623;28;20473;-77
2021/12/13 00:43:08;;;;;;;0.63;0.63;;;4.90;99.90;;;;;;5246663;28;20035;-77
2021/12/13 00:46:03;;;;;;;0.60;0.60;;;4.90;99.90;;;;;;5239956;28;20334;-77
2021/12/13 00:48:47;;;;;;;0.70;0.70;;;4.90;99.90;;;;;;5247327;28;20434;-76
2021/12/13 00:51:27;;;;;;;0.55;0.55;;;4.90;99.90;;;;;;5242285;28;20048;-76
2021/12/13 00:54:17;;;;;;;0.40;0.40;;;5.00;99.90;;;;;;5236375;28;20127;-76
2021/12/13 00:56:56;;;;;;;0.45;0.45;;;5.00;99.90;;;;;;5261638;28;20433;-76
2021/12/13 00:59:40;;;;;;;0.50;0.50;;;5.00;99.90;;;;;;5244768;28;20099;-75
2021/12/13 01:02:33;;;;;;;0.60;0.60;;;5.00;99.90;;;;;;5236353;28;20016;-75
2021/12/13 01:05:19;;;;;;;0.52;0.52;;;5.00;99.90;;;;;;5252179;28;20373;-76
2021/12/13 01:08:30;;;;;;;0.50;0.50;;;5.00;99.90;;;;;;5253689;28;20028;-75
2021/12/13 01:11:38;;;;;;;0.50;0.50;;;5.10;99.90;;;;;;5259301;28;20085;-75
2021/12/13 01:14:34;;;;;;;0.50;0.50;;;5.10;99.90;;;;;;5257470;28;20024;-76
2021/12/13 01:17:39;;;;;;;0.55;0.55;;;5.10;99.90;;;;;;5241893;28;20044;-75
2021/12/13 01:20:32;;;;;;;0.50;0.50;;;5.00;99.90;;;;;;5244893;28;20042;-76
2021/12/13 01:23:28;;;;;;;1.00;0.80;;;5.10;99.90;;;;;;5229168;28;20036;-75
2021/12/13 01:26:14;;;;;;;;;;;5.10;99.90;;;;;;5262353;28;20059;-76
2021/12/13 01:29:00;;;;;;;0.50;0.50;;;5.10;99.90;;;;;;5256185;28;19999;-76
2021/12/13 01:31:43;;;;;;;0.60;0.60;;;5.10;99.90;;;;;;5256123;28;20087;-76
2021/12/13 01:34:19;;;;;;;0.85;0.85;;;5.20;99.90;;;;;;5250096;28;20027;-76
2021/12/13 01:37:05;;;;;;;0.40;0.40;;;5.20;99.90;;;;;;5242014;28;20032;-75
2021/12/13 01:39:46;;;;;;;0.60;0.60;;;5.20;99.90;;;;;;5239609;28;20028;-76
2021/12/13 01:42:30;;;;;;;1.17;1.17;;;5.20;99.90;;;;;;5252325;28;20024;-75
2021/12/13 01:45:13;;;;;;;0.60;0.60;;;5.20;99.90;;;;;;5236389;28;20051;-75
2021/12/13 01:47:47;;;;;;;0.50;0.50;;;5.20;99.90;;;;;;5229802;28;20093;-75
2021/12/13 01:50:47;;;;;;;0.50;0.50;;;5.20;99.90;;;;;;5271588;28;20337;-77
2021/12/13 01:53:44;;;;;;;0.50;0.50;;;5.20;99.90;;;;;;5261316;28;20036;-75
2021/12/13 02:02:30;;;;;;;0.70;0.70;;;5.10;99.90;;;;;;5255092;28;20023;-76
2021/12/13 02:05:19;;;;;;;0.65;0.65;;;5.10;99.90;;;;;;5261291;28;20051;-76
2021/12/13 02:08:17;;;;;;;0.40;0.40;;;5.20;99.90;;;;;;5253370;28;20040;-75
2021/12/13 02:10:53;;;;;;;0.50;0.50;;;5.20;99.90;;;;;;5249279;28;20028;-75
2021/12/13 02:13:37;;;;;;;0.40;0.40;;;5.20;99.90;;;;;;5249152;28;20522;-76
2021/12/13 02:19:35;;;;;;;0.40;0.40;;;5.30;99.90;;;;;;5189722;28;20065;-76
2021/12/13 02:22:09;;;;;;;0.82;0.82;;;5.30;99.90;;;;;;5196880;28;20052;-75
2021/12/13 02:24:46;;;;;;;0.45;0.45;;;5.30;99.90;;;;;;5179127;28;20053;-75
2021/12/13 02:27:28;;;;;;;0.50;0.50;;;5.30;99.90;;;;;;5176641;28;20050;-75
2021/12/13 02:30:11;;;;;;;0.50;0.50;;;5.30;99.90;;;;;;5192086;28;20084;-75
2021/12/13 02:32:48;;;;;;;0.65;0.65;;;5.40;99.90;;;;;;5163428;28;20025;-75
2021/12/13 02:35:24;;;;;;;0.50;0.50;;;5.40;99.90;;;;;;5180478;28;20099;-76
2021/12/13 02:38:06;;;;;;;0.88;0.85;;;5.40;99.90;;;;;;5188082;28;20046;-75
2021/12/13 02:40:44;;;;;;;0.52;0.52;;;5.40;99.90;;;;;;5201057;28;20037;-75
2021/12/13 02:43:18;;;;;;;0.50;0.50;;;5.30;99.90;;;;;;5218882;28;20124;-76
2021/12/13 02:45:55;;;;;;;0.50;0.50;;;5.30;99.90;;;;;;5204271;28;20132;-76
2021/12/13 02:48:47;;;;;;;0.40;0.40;;;5.30;99.90;;;;;;5203038;28;20112;-76
2021/12/13 02:51:28;;;;;;;0.43;0.43;;;5.20;99.90;;;;;;5262789;28;20028;-76
2021/12/13 02:54:31;;;;;;;0.50;0.50;;;5.20;99.90;;;;;;5283082;28;20054;-76
2021/12/13 02:57:22;;;;;;;0.55;0.55;;;5.10;99.90;;;;;;5277248;28;20046;-75
2021/12/13 03:00:21;;;;;;;0.50;0.50;;;5.00;99.90;;;;;;5237223;28;20418;-76
2021/12/13 03:02:59;;;;;;;0.52;0.52;;;5.00;99.90;;;;;;5268773;28;20368;-74
2021/12/13 03:05:47;;;;;;;0.40;0.40;;;4.90;99.90;;;;;;5266614;28;20132;-75
2021/12/13 03:08:29;;;;;;;0.40;0.40;;;4.90;99.90;;;;;;5279019;28;20054;-77
2021/12/13 03:11:11;;;;;;;0.50;0.50;;;4.90;99.90;;;;;;5255443;28;20063;-75
2021/12/13 03:13:44;;;;;;;0.50;0.50;;;4.80;99.90;;;;;;5277820;28;20028;-75
2021/12/13 03:16:28;;;;;;;0.52;0.52;;;4.80;99.90;;;;;;5265159;28;20060;-74
2021/12/13 03:19:24;;;;;;;0.80;0.80;;;4.80;99.90;;;;;;5273294;28;20016;-75
2021/12/13 03:22:25;;;;;;;0.60;0.60;;;4.80;99.90;;;;;;5275006;28;20039;-76
2021/12/13 03:25:10;;;;;;;0.60;0.60;;;4.80;99.90;;;;;;5259831;28;20047;-75
2021/12/13 03:28:05;;;;;;;0.40;0.40;;;4.80;99.90;;;;;;5276750;27;20408;-75
2021/12/13 03:31:04;;;;;;;0.50;0.50;;;4.70;99.90;;;;;;5266718;28;20043;-75
2021/12/13 03:33:50;;;;;;;0.70;0.70;;;4.70;99.90;;;;;;5280432;28;20694;-75
2021/12/13 03:36:51;;;;;;;0.60;0.60;;;4.70;99.90;;;;;;5287086;27;20038;-75
2021/12/13 03:39:53;;;;;;;0.47;0.47;;;4.70;99.90;;;;;;5276709;28;20213;-75
2021/12/13 03:42:34;;;;;;;0.50;0.50;;;4.70;99.90;;;;;;5246154;28;20031;-74
2021/12/13 03:45:23;;;;;;;0.40;0.40;;;4.60;99.90;;;;;;5262577;28;20032;-75
2021/12/13 03:47:59;;;;;;;0.40;0.40;;;4.60;99.90;;;;;;5230755;28;20105;-75
2021/12/13 03:50:46;;;;;;;0.40;0.40;;;4.60;99.90;;;;;;5266460;28;20032;-75
2021/12/13 03:53:25;;;;;;;0.40;0.40;;;4.50;99.90;;;;;;5261167;28;20058;-75
2021/12/13 03:56:23;;;;;;;0.40;0.40;;;4.50;99.90;;;;;;5235906;28;20055;-76
2021/12/13 03:59:05;;;;;;;0.50;0.50;;;4.50;99.90;;;;;;5261484;28;20028;-75
2021/12/13 04:01:58;;;;;;;0.50;0.50;;;4.50;99.90;;;;;;5254463;28;20480;-75
2021/12/13 04:04:40;;;;;;;0.60;0.60;;;4.50;99.90;;;;;;5246158;28;20033;-75
2021/12/13 04:07:27;;;;;;;0.40;0.40;;;4.40;99.90;;;;;;5237395;28;20454;-75
2021/12/13 04:10:10;;;;;;;0.40;0.40;;;4.40;99.90;;;;;;5229122;28;20028;-75
2021/12/13 04:12:48;;;;;;;0.45;0.45;;;4.40;99.90;;;;;;5256265;28;20039;-76
2021/12/13 04:21:45;;;;;;;0.80;0.80;;;4.50;99.90;;;;;;5257142;28;20073;-75
2021/12/13 04:24:38;;;;;;;0.57;0.57;;;4.40;99.90;;;;;;5243972;28;20064;-75
2021/12/13 04:27:31;;;;;;;0.55;0.55;;;4.50;99.90;;;;;;5248574;28;20032;-75
2021/12/13 04:30:31;;;;;;;0.60;0.60;;;4.50;99.90;;;;;;5248851;28;20089;-75
2021/12/13 04:33:40;;;;;;;0.60;0.60;;;4.50;99.90;;;;;;5256475;28;20028;-75
2021/12/13 04:36:25;;;;;;;0.50;0.50;;;4.60;99.90;;;;;;5240395;28;20051;-75
2021/12/13 04:39:04;;;;;;;;;;;4.60;99.90;;;;;;5257538;28;20027;-76
2021/12/13 04:41:53;;;;;;;0.40;0.40;;;4.60;99.90;;;;;;5257675;28;19969;-75
2021/12/13 04:44:40;;;;;;;0.47;0.47;;;4.60;99.90;;;;;;5262589;28;20029;-75
2021/12/13 04:47:18;;;;;;;0.40;0.40;;;4.60;99.90;;;;;;5235141;28;20058;-75
2021/12/13 04:50:20;;;;;;;0.50;0.50;;;4.60;99.90;;;;;;5226618;28;20032;-75
2021/12/13 04:52:53;;;;;;;0.55;0.55;;;4.60;99.90;;;;;;5249970;28;20043;-75
2021/12/13 04:55:36;;;;;;;0.40;0.40;;;4.60;99.90;;;;;;5243552;28;20039;-75
2021/12/13 04:58:12;;;;;;;0.50;0.50;;;4.70;99.90;;;;;;5253622;28;20043;-75
2021/12/13 05:00:55;;;;;;;0.50;0.50;;;4.70;99.90;;;;;;5238695;28;20134;-75
2021/12/13 05:03:35;;;;;;;0.50;0.50;;;4.70;99.90;;;;;;5242707;28;20050;-74
2021/12/13 05:06:19;;;;;;;0.45;0.45;;;4.70;99.90;;;;;;5244670;28;20091;-75
2021/12/13 05:08:58;;;;;;;0.40;0.40;;;4.70;99.90;;;;;;5246336;28;20249;-75
2021/12/13 05:11:43;;;;;;;0.40;0.40;;;4.80;99.90;;;;;;5245603;28;20062;-77
2021/12/13 05:14:28;;;;;;;0.50;0.50;;;4.80;99.90;;;;;;5261190;28;20028;-75
2021/12/13 05:17:11;;;;;;;0.75;0.75;;;4.70;99.90;;;;;;5263547;28;20043;-75
2021/12/13 05:20:16;;;;;;;0.50;0.50;;;4.70;99.90;;;;;;5227036;28;20031;-76
2021/12/13 05:23:05;;;;;;;0.50;0.50;;;4.80;99.90;;;;;;5253610;28;20378;-76
2021/12/13 05:25:52;;;;;;;0.43;0.43;;;4.80;99.90;;;;;;5260292;28;20024;-74
2021/12/13 05:28:50;;;;;;;0.60;0.60;;;4.80;99.90;;;;;;5264294;28;20115;-74
2021/12/13 05:31:26;;;;;;;1.08;0.80;;;4.70;99.90;;;;;;5243254;28;20044;-75
2021/12/13 05:34:04;;;;;;;0.80;0.80;;;4.70;99.90;;;;;;5250153;28;20095;-75
2021/12/13 05:36:42;;;;;;;0.60;0.60;;;4.70;99.90;;;;;;5247743;28;20076;-74
2021/12/13 05:39:19;;;;;;;0.50;0.50;;;4.60;99.90;;;;;;5245421;28;20033;-75
2021/12/13 05:42:00;;;;;;;0.70;0.70;;;4.60;99.90;;;;;;5259958;28;21042;-75
2021/12/13 05:44:46;;;;;;;1.17;1.17;;;4.50;99.90;;;;;;5265505;28;20036;-74
2021/12/13 05:47:30;;;;;;;0.75;0.75;;;4.50;99.90;;;;;;5243155;28;20024;-74
2021/12/13 05:50:06;;;;;;;0.50;0.50;;;4.60;99.90;;;;;;5261681;28;20543;-76
2021/12/13 05:52:43;;;;;;;0.65;0.65;;;4.50;99.90;;;;;;5261450;28;20085;-75
2021/12/13 05:55:15;;;;;;;0.50;0.50;;;4.60;99.90;;;;;;5254470;28;20032;-76
2021/12/13 05:57:51;;;;;;;0.68;0.68;;;4.50;99.90;;;;;;5241441;28;20058;-75
2021/12/13 06:00:32;;;;;;;0.52;0.52;;;4.50;99.90;;;;;;5247137;28;20044;-75
2021/12/13 06:03:18;;;;;;;0.57;0.57;;;4.50;99.90;;;;;;5247548;28;20031;-76
2021/12/13 06:05:52;;;;;;;0.60;0.60;;;4.50;99.90;;;;;;5227131;28;20037;-75
2021/12/13 06:08:37;;;;;;;;;;;4.40;99.90;;;;;;5249745;28;20032;-77
2021/12/13 06:11:20;;;;;;;0.40;0.40;;;4.40;99.90;;;;;;5249982;28;19920;-74
2021/12/13 06:14:08;;;;;;;0.47;0.47;;;4.40;99.90;;;;;;5256579;28;20032;-75
2021/12/13 06:16:55;;;;;;;0.50;0.50;;;4.40;99.90;;;;;;5252301;28;20027;-77
2021/12/13 06:19:40;;;;;;;0.60;0.60;;;4.40;99.90;;;;;;5254298;28;20154;-76
2021/12/13 06:22:17;;;;;;;0.50;0.50;;;4.40;99.90;;;;;;5242253;28;20054;-74
2021/12/13 06:24:51;;;;;;;0.65;0.65;;;4.40;99.90;;;;;;5261829;28;20639;-75
2021/12/13 06:27:32;;;;;;;0.50;0.50;;;4.40;99.90;;;;;;5259253;28;20051;-74
2021/12/13 06:30:11;;;;;;;0.50;0.50;;;4.40;99.90;;;;;;5226936;28;20028;-75
2021/12/13 06:32:49;;;;;;;0.50;0.50;;;4.40;99.90;;;;;;5254818;28;20044;-75
2021/12/13 06:35:46;;;;;;;0.50;0.50;;;4.40;99.90;;;;;;5254718;28;20047;-75
2021/12/13 06:38:20;;;;;;;0.43;0.43;;;4.40;99.90;;;;;;5264038;28;20044;-76
2021/12/13 06:41:18;;;;;;;0.60;0.60;;;4.40;99.90;;;;;;5253597;28;20054;-75
2021/12/13 06:44:02;;;;;;;0.30;0.30;;;4.40;99.90;;;;;;5237639;28;20032;-75
2021/12/13 06:46:39;;;;;;;;;;;4.40;99.90;;;;;;5250720;28;20150;-75
2021/12/13 06:49:34;;;;;;;0.57;0.57;;;4.40;99.90;;;;;;5257668;28;20220;-75
2021/12/13 06:52:32;;;;;;;0.40;0.40;;;4.40;99.90;;;;;;5247883;28;20348;-75
2021/12/13 06:55:15;;;;;;;0.60;0.60;;;4.40;99.90;;;;;;5245888;28;20277;-74
2021/12/13 06:58:00;;;;;;;0.52;0.52;;;4.40;99.90;;;;;;5240438;28;20030;-74
2021/12/13 07:00:38;;;;;;;0.60;0.60;;;4.40;99.90;;;;;;5237673;28;20114;-74
2021/12/13 07:03:24;;;;;;;0.50;0.50;;;4.40;99.90;;;;;;5260910;28;20036;-74
2021/12/13 07:06:02;;;;;;;0.50;0.50;;;4.40;99.90;;;;;;5261078;28;20036;-75
2021/12/13 07:08:39;;;;;;;0.40;0.40;;;4.40;99.90;;;;;;5255249;28;20096;-75
2021/12/13 07:11:20;;;;;;;0.55;0.55;;;4.40;99.90;;;;;;5265303;28;20035;-75
2021/12/13 07:14:07;;;;;;;0.52;0.52;;;4.40;99.90;;;;;;5249397;28;20095;-76
2021/12/13 07:16:46;;;;;;;0.40;0.40;;;4.40;99.90;;;;;;5267490;28;20035;-75
2021/12/13 07:19:25;;;;;;;0.63;0.63;;;4.40;99.90;;;;;;5246762;28;20059;-75
2021/12/13 07:22:07;;;;;;;0.45;0.45;;;4.40;99.90;;;;;;5245076;28;20077;-75
2021/12/13 07:24:42;;;;;;;0.43;0.43;;;4.40;99.90;;;;;;5258117;28;20103;-75
2021/12/13 07:27:33;;;;;;;0.43;0.43;;;4.40;99.90;;;;;;5266430;28;20024;-75
2021/12/13 07:30:19;;;;;;;0.45;0.45;;;4.40;99.90;;;;;;5265560;28;20034;-75
2021/12/13 07:33:37;;;;;;;0.40;0.40;;;4.40;99.90;;;;;;5260271;28;20093;-75
2021/12/13 07:36:17;;;;;;;0.60;0.60;;;4.50;99.90;;;;;;5186906;28;20038;-77
2021/12/13 07:39:02;;;;;;;0.40;0.40;;;4.40;99.90;;;;;;5185323;28;20041;-76
2021/12/13 07:41:48;;;;;;;0.45;0.45;;;4.40;99.90;;;;;;5220498;28;20063;-77
2021/12/13 07:44:47;;;;;;;0.40;0.40;;;4.40;99.90;;;;;;5212637;28;20071;-77
2021/12/13 07:47:26;;;;;;;0.40;0.40;;;4.50;99.90;;;;;;5207146;28;20033;-77
2021/12/13 07:50:05;;;;;;;0.50;0.50;;;4.50;99.90;;;;;;5204132;28;20195;-77
2021/12/13 07:52:39;;;;;;;0.40;0.40;;;4.50;99.90;;;;;;5203926;28;20060;-75
2021/12/13 07:55:19;;;;;;;0.50;0.50;;;4.50;99.90;;;;;;5199665;28;20052;-75
2021/12/13 07:57:57;;;;;;;0.40;0.40;;;4.50;99.90;;;;;;5184818;28;20041;-76
2021/12/13 08:00:38;;;;;;;0.65;0.65;;;4.50;99.90;;;;;;5200794;28;20124;-75
2021/12/13 08:03:26;;;;;;;0.60;0.60;;;4.50;99.90;;;;;;5210561;28;20334;-75
2021/12/13 08:06:06;;;;;;;0.57;0.57;;;4.50;99.90;;;;;;5198180;28;20044;-75
2021/12/13 08:08:54;;;;;;;0.45;0.45;;;4.60;99.90;;;;;;5188898;28;20041;-77
2021/12/13 08:11:49;;;;;;;2.35;2.15;;;4.60;99.90;;;;;;5228375;28;20039;-77
2021/12/13 08:14:44;;;;;;;0.80;0.80;;;4.60;99.90;;;;;;5279471;28;20032;-75
2021/12/13 08:17:31;;;;;;;0.60;0.60;;;4.60;99.90;;;;;;5279203;28;20023;-77
2021/12/13 08:20:09;;;;;;;0.40;0.40;;;4.60;99.90;;;;;;5263399;28;20024;-78
2021/12/13 08:22:46;;;;;;;0.60;0.60;;;4.70;99.90;;;;;;5272378;28;20134;-75
2021/12/13 08:25:27;;;;;;;0.50;0.50;;;4.70;99.90;;;;;;5294622;27;20176;-77
2021/12/13 08:28:20;;;;;;;0.70;0.70;;;4.70;99.90;;;;;;5306598;27;20027;-75
2021/12/13 08:31:10;;;;;;;1.38;1.27;;;4.70;99.90;;;;;;5291023;27;20085;-75
2021/12/13 08:33:53;;;;;;;0.82;0.82;;;4.70;99.90;;;;;;5300292;27;20031;-76
2021/12/13 08:36:24;;;;;;;0.40;0.40;;;4.70;99.90;;;;;;5265353;28;20020;-76
2021/12/13 08:39:17;;;;;;;0.90;0.90;;;4.80;99.90;;;;;;5265272;28;20035;-76
2021/12/13 08:42:15;;;;;;;0.70;0.70;;;4.80;99.90;;;;;;5258237;28;20032;-76
2021/12/13 08:44:57;;;;;;;0.40;0.40;;;4.80;99.90;;;;;;5263029;28;20024;-77
2021/12/13 08:47:42;;;;;;;0.50;0.50;;;5.00;99.90;;;;;;5261257;28;20140;-77
2021/12/13 08:50:35;;;;;;;0.50;0.50;;;5.00;99.90;;;;;;5263977;28;20024;-77
2021/12/13 08:53:24;;;;;;;0.47;0.47;;;5.00;99.90;;;;;;5255077;28;20096;-76
2021/12/13 08:56:09;;;;;;;0.57;0.57;;;5.10;99.90;;;;;;5262105;28;20324;-75
2021/12/13 08:59:03;;;;;;;0.50;0.50;;;5.00;99.90;;;;;;5263735;28;20036;-76
2021/12/13 09:01:50;;;;;;;0.35;0.35;;;5.00;99.90;;;;;;5260924;28;20160;-77
2021/12/13 09:04:35;;;;;;;0.63;0.63;;;5.10;99.90;;;;;;5261455;28;20545;-76
2021/12/13 09:07:13;;;;;;;;;;;5.10;99.90;;;;;;5263065;28;20609;-78
2021/12/13 09:09:51;;;;;;;0.70;0.70;;;5.20;99.90;;;;;;5244003;28;19912;-76
2021/12/13 09:12:43;;;;;;;0.50;0.50;;;5.30;99.90;;;;;;5255188;28;20051;-76
2021/12/13 09:15:25;;;;;;;0.50;0.50;;;5.30;99.90;;;;;;5225468;28;20033;-75
2021/12/13 09:17:56;;;;;;;0.60;0.60;;;5.20;99.90;;;;;;5245223;28;20027;-78
2021/12/13 09:20:34;;;;;;;0.50;0.50;;;5.20;99.90;;;;;;5258493;28;20104;-76
2021/12/13 09:23:20;;;;;;;0.40;0.40;;;5.20;99.90;;;;;;5261592;28;20032;-76
2021/12/13 09:26:03;;;;;;;0.50;0.50;;;5.20;99.90;;;;;;5274593;28;20032;-76
2021/12/13 09:28:50;;;;;;;0.57;0.57;;;5.20;99.90;;;;;;5250454;28;20034;-77
2021/12/13 09:31:38;;;;;;;0.50;0.50;;;5.30;99.90;;;;;;5261461;28;20031;-77
2021/12/13 09:34:20;;;;;;;0.50;0.50;;;5.40;99.90;;;;;;5259681;28;20020;-76
2021/12/13 09:36:57;;;;;;;0.50;0.50;;;5.40;99.90;;;;;;5284414;27;20035;-75
2021/12/13 09:39:29;;;;;;;0.40;0.40;;;5.50;99.90;;;;;;5268578;27;20448;-75
2021/12/13 09:42:15;;;;;;;0.40;0.40;;;5.60;99.90;;;;;;5267999;28;20326;-75
2021/12/13 09:45:07;;;;;;;0.50;0.50;;;5.80;99.90;;;;;;5274920;28;20385;-76
2021/12/13 09:47:45;;;;;;;0.43;0.43;;;5.90;99.90;;;;;;5275033;28;20032;-75
2021/12/13 09:50:31;;;;;;;0.50;0.50;;;6.00;99.90;;;;;;5248806;28;20027;-75
2021/12/13 09:53:12;;;;;;;0.38;0.38;;;6.20;99.90;;;;;;5287048;27;20430;-75
2021/12/13 09:55:52;;;;;;;0.70;0.70;;;6.70;99.90;;;;;;5282017;28;20064;-75
2021/12/13 09:58:47;;;;;;;0.50;0.50;;;6.90;99.90;;;;;;5265626;28;20027;-76
2021/12/13 10:01:36;;;;;;;0.40;0.40;;;6.60;99.90;;;;;;5265999;28;20066;-75
2021/12/13 10:04:17;;;;;;;0.30;0.30;;;6.30;99.90;;;;;;5278530;27;20070;-75
2021/12/13 10:07:00;;;;;;;0.50;0.50;;;6.10;99.90;;;;;;5306639;27;20019;-75
2021/12/13 10:09:44;;;;;;;0.50;0.50;;;6.10;99.90;;;;;;5281888;28;20054;-74
2021/12/13 10:12:20;;;;;;;;;;;6.00;99.90;;;;;;5275613;28;20050;-74
2021/12/13 10:15:14;;;;;;;0.50;0.50;;;5.90;99.90;;;;;;5275354;28;19923;-75
2021/12/13 10:17:52;;;;;;;0.50;0.50;;;6.00;99.90;;;;;;5270465;28;20032;-76
2021/12/13 10:21:00;;;;;;;0.70;0.70;;;5.80;99.90;;;;;;5259910;28;20101;-74
2021/12/13 10:23:37;;;;;;;0.40;0.40;;;5.70;99.90;;;;;;5277826;28;20036;-75
2021/12/13 10:26:14;;;;;;;0.60;0.60;;;5.70;99.90;;;;;;5254638;28;20306;-75
2021/12/13 10:28:54;;;;;;;0.60;0.60;;;5.60;99.90;;;;;;5283747;28;20026;-75
2021/12/13 10:31:36;;;;;;;0.60;0.60;;;5.50;99.90;;;;;;5266145;28;20381;-76
2021/12/13 10:34:17;;;;;;;0.47;0.47;;;5.50;99.90;;;;;;5274170;28;20047;-74
2021/12/13 10:37:03;;;;;;;0.40;0.40;;;5.50;99.90;;;;;;5271190;28;20031;-74
2021/12/13 10:39:50;;;;;;;0.50;0.50;;;5.40;99.90;;;;;;5266374;28;20077;-75
2021/12/13 10:42:33;;;;;;;0.60;0.60;;;5.30;99.90;;;;;;5277582;28;20035;-75
2021/12/13 10:45:21;;;;;;;0.50;0.50;;;5.40;99.90;;;;;;5262837;28;20119;-74
2021/12/13 10:48:02;;;;;;;0.50;0.50;;;5.40;99.90;;;;;;5285686;28;20240;-75
2021/12/13 10:50:45;;;;;;;0.52;0.52;;;5.30;99.90;;;;;;5251213;27;20550;-75
2021/12/13 10:53:23;;;;;;;0.65;0.65;;;5.40;99.90;;;;;;5297233;28;20217;-74
2021/12/13 10:56:17;;;;;;;0.50;0.50;;;5.40;99.90;;;;;;5269556;28;20038;-77
2021/12/13 10:58:58;;;;;;;0.68;0.68;;;5.30;99.90;;;;;;5271097;28;20099;-74
2021/12/13 11:01:39;;;;;;;0.40;0.40;;;5.40;99.90;;;;;;5267038;28;20410;-75
2021/12/13 11:04:28;;;;;;;0.40;0.40;;;5.40;99.90;;;;;;5298606;27;20258;-76
2021/12/13 11:07:03;;;;;;;0.50;0.50;;;5.30;99.90;;;;;;5258926;28;20350;-76
2021/12/13 11:09:41;;;;;;;0.47;0.47;;;5.30;99.90;;;;;;5268986;28;20028;-76
2021/12/13 11:12:27;;;;;;;0.50;0.50;;;5.20;99.90;;;;;;5276417;28;20019;-74
2021/12/13 11:15:04;;;;;;;0.50;0.50;;;5.20;99.90;;;;;;5247551;28;20333;-75
2021/12/13 11:17:40;;;;;;;0.40;0.40;;;5.20;99.90;;;;;;5279629;28;20335;-75
2021/12/13 11:20:20;;;;;;;0.80;0.80;;;5.20;99.90;;;;;;5264787;28;20027;-75
2021/12/13 11:22:54;;;;;;;0.50;0.50;;;5.10;99.90;;;;;;5248536;28;20031;-75
2021/12/13 11:25:47;;;;;;;;;;;5.10;99.90;;;;;;5278681;28;20098;-76
2021/12/13 11:28:19;;;;;;;0.52;0.52;;;5.20;99.90;;;;;;5268019;28;19919;-76
2021/12/13 11:30:53;;;;;;;0.43;0.43;;;5.10;99.90;;;;;;5274015;28;20110;-76
2021/12/13 11:33:42;;;;;;;0.57;0.57;;;5.10;99.90;;;;;;5281115;28;20031;-76
2021/12/13 11:36:43;;;;;;;0.50;0.50;;;5.10;99.90;;;;;;5280045;27;20260;-77
2021/12/13 11:40:09;;;;;;;0.57;0.57;;;5.20;99.90;;;;;;5295939;27;20086;-74
2021/12/13 11:43:03;;;;;;;;;;;5.20;99.90;;;;;;5250395;28;20113;-76
2021/12/13 11:46:14;;;;;;;0.80;0.80;;;5.20;99.90;;;;;;5246782;28;19931;-75
2021/12/13 11:49:16;;;;;;;0.43;0.43;;;5.20;99.90;;;;;;5260886;28;20153;-76
2021/12/13 11:52:08;;;;;;;0.68;0.68;;;5.20;99.90;;;;;;5247476;28;20032;-76
2021/12/13 11:55:35;;;;;;;0.47;0.47;;;5.30;99.90;;;;;;5268310;28;20036;-77
2021/12/13 11:58:42;;;;;;;0.50;0.50;;;5.20;99.90;;;;;;5257410;28;20032;-76
2021/12/13 12:02:00;;;;;;;0.50;0.50;;;5.10;99.90;;;;;;5253454;28;20314;-75
2021/12/13 12:05:08;;;;;;;0.57;0.57;;;5.10;99.90;;;;;;5253227;28;20040;-78
2021/12/13 12:08:33;;;;;;;0.43;0.43;;;5.10;99.90;;;;;;5256006;28;20027;-76
2021/12/13 12:11:44;;;;;;;0.40;0.40;;;5.10;99.90;;;;;;5219232;28;20034;-76
2021/12/13 12:14:24;;;;;;;0.30;0.30;;;5.20;99.90;;;;;;5250268;28;20033;-78
2021/12/13 12:16:58;;;;;;;0.40;0.40;;;5.10;99.90;;;;;;5241394;28;20691;-76
2021/12/13 12:19:40;;;;;;;0.60;0.60;;;5.10;99.90;;;;;;5225890;28;20107;-78
2021/12/13 12:22:19;;;;;;;0.50;0.50;;;5.10;99.90;;;;;;5229512;28;20090;-78
2021/12/13 12:24:58;;;;;;;0.50;0.50;;;5.10;99.90;;;;;;5253975;28;20036;-76
2021/12/13 12:27:39;;;;;;;0.40;0.40;;;5.10;99.90;;;;;;5247240;28;20047;-76
2021/12/13 12:30:19;;;;;;;0.40;0.40;;;5.10;99.90;;;;;;5247474;28;20648;-77
2021/12/13 12:32:55;;;;;;;0.50;0.50;;;5.10;99.90;;;;;;5249927;28;20412;-78
2021/12/13 12:35:34;;;;;;;0.70;0.70;;;5.10;99.90;;;;;;5249594;28;20039;-77
2021/12/13 12:38:23;;;;;;;0.57;0.57;;;5.10;99.90;;;;;;5260002;28;20055;-77
2021/12/13 12:41:06;;;;;;;0.50;0.50;;;5.10;99.90;;;;;;5236731;28;20039;-77
2021/12/13 12:43:50;;;;;;;0.57;0.57;;;5.10;99.90;;;;;;5249688;28;20099;-76
2021/12/13 12:46:27;;;;;;;0.52;0.52;;;5.00;99.90;;;;;;5259341;28;20055;-76
2021/12/13 12:49:01;;;;;;;0.47;0.47;;;5.00;99.90;;;;;;5260697;28;20054;-76
2021/12/13 12:51:37;;;;;;;;;;;5.10;99.90;;;;;;5261134;28;20059;-76
2021/12/13 12:54:19;;;;;;;0.50;0.50;;;5.00;99.90;;;;;;5242972;28;19912;-76
2021/12/13 12:57:01;;;;;;;0.60;0.60;;;5.00;99.90;;;;;;5242155;28;20040;-76
2021/12/13 12:59:42;;;;;;;0.40;0.40;;;5.10;99.90;;;;;;5258033;28;20050;-76
2021/12/13 13:02:20;;;;;;;0.60;0.60;;;5.00;99.90;;;;;;5252580;28;20055;-76
2021/12/13 13:04:59;;;;;;;0.50;0.50;;;5.00;99.90;;;;;;5262774;28;20074;-76
2021/12/13 13:07:37;;;;;;;0.40;0.40;;;5.00;99.90;;;;;;5252141;28;20067;-76
2021/12/13 13:13:12;;;;;;;0.50;0.50;;;5.00;99.90;;;;;;5256197;28;20577;-76
2021/12/13 13:15:56;;;;;;;0.38;0.38;;;5.00;99.90;;;;;;5243991;28;20219;-76
2021/12/13 13:18:28;;;;;;;0.47;0.47;;;5.00;99.90;;;;;;5265567;28;20028;-76
2021/12/13 13:21:04;;;;;;;0.40;0.40;;;5.00;99.90;;;;;;5236304;28;20036;-77
2021/12/13 13:23:53;;;;;;;0.35;0.35;;;5.00;99.90;;;;;;5253448;28;20046;-77
2021/12/13 13:26:33;;;;;;;0.70;0.70;;;4.90;99.90;;;;;;5257644;28;20099;-76
2021/12/13 13:29:14;;;;;;;0.45;0.45;;;4.90;99.90;;;;;;5248917;28;20024;-76
2021/12/13 13:31:57;;;;;;;0.70;0.70;;;4.90;99.90;;;;;;5262051;28;20031;-76
2021/12/13 13:34:34;;;;;;;0.50;0.50;;;4.90;99.90;;;;;;5254699;28;20043;-75
2021/12/13 13:37:26;;;;;;;0.57;0.57;;;4.90;99.90;;;;;;5255101;28;20501;-74
2021/12/13 13:40:14;;;;;;;0.45;0.45;;;5.00;99.90;;;;;;5268427;28;20035;-74
2021/12/13 13:43:02;;;;;;;0.60;0.60;;;4.90;99.90;;;;;;5253974;28;20059;-74
2021/12/13 13:45:52;;;;;;;0.50;0.50;;;4.90;99.90;;;;;;5239937;28;20055;-75
2021/12/13 13:48:32;;;;;;;0.40;0.40;;;4.90;99.90;;;;;;5240299;28;20574;-75
2021/12/13 13:51:16;;;;;;;0.57;0.57;;;4.90;99.90;;;;;;5233661;28;20028;-74
2021/12/13 13:53:58;;;;;;;0.70;0.70;;;4.90;99.90;;;;;;5242776;28;20044;-76
2021/12/13 13:56:38;;;;;;;0.60;0.60;;;5.00;99.90;;;;;;5241507;28;20051;-76
2021/12/13 13:59:17;;;;;;;0.70;0.70;;;4.90;99.90;;;;;;5234957;28;20024;-76
2021/12/13 14:02:04;;;;;;;0.50;0.50;;;5.00;99.90;;;;;;5249787;28;20075;-76
2021/12/13 14:04:43;;;;;;;0.70;0.70;;;5.00;99.90;;;;;;5255816;28;20077;-77
2021/12/13 14:07:22;;;;;;;0.50;0.50;;;5.00;99.90;;;;;;5250802;28;20028;-75
2021/12/13 14:10:02;;;;;;;0.50;0.50;;;5.00;99.90;;;;;;5256706;28;20076;-76
2021/12/13 14:12:47;;;;;;;0.70;0.70;;;5.00;99.90;;;;;;5242664;28;20348;-77
2021/12/13 14:15:23;;;;;;;0.52;0.52;;;4.90;99.90;;;;;;5243739;28;20241;-76
2021/12/13 14:18:22;;;;;;;0.50;0.50;;;5.00;99.90;;;;;;5254960;28;20451;-76
2021/12/13 14:21:04;;;;;;;0.50;0.50;;;5.00;99.90;;;;;;5251009;28;20036;-76
2021/12/13 14:23:40;;;;;;;0.40;0.40;;;5.00;99.90;;;;;;5241741;28;20044;-76
2021/12/13 14:26:18;;;;;;;0.50;0.50;;;5.00;99.90;;;;;;5251653;28;20104;-76
2021/12/13 14:29:01;;;;;;;0.47;0.47;;;5.00;99.90;;;;;;5237767;28;20143;-76
2021/12/13 14:31:42;;;;;;;0.70;0.70;;;5.00;99.90;;;;;;5273586;28;20035;-76
2021/12/13 14:34:24;;;;;;;0.70;0.70;;;5.00;99.90;;;;;;5258754;28;20028;-76
2021/12/13 14:36:58;;;;;;;0.50;0.50;;;5.00;99.90;;;;;;5256701;28;20063;-76
2021/12/13 14:39:34;;;;;;;0.60;0.60;;;5.10;99.90;;;;;;5243201;28;20035;-75
2021/12/13 14:42:27;;;;;;;0.50;0.50;;;5.10;99.90;;;;;;5265620;28;20040;-75
2021/12/13 14:45:06;;;;;;;0.65;0.65;;;5.10;99.90;;;;;;5249596;28;20031;-77
2021/12/13 14:47:46;;;;;;;0.90;0.90;;;5.10;99.90;;;;;;5249185;28;20198;-74
2021/12/13 14:50:25;;;;;;;0.60;0.60;;;5.10;99.90;;;;;;5225964;28;20028;-74
2021/12/13 14:53:08;;;;;;;0.57;0.57;;;5.10;99.90;;;;;;5261870;28;20052;-75